createdAt,value
2022-10-25T00:01:05.475Z,98.50
2022-10-25T00:03:32.149Z,98.50
2022-10-25T00:05:58.820Z,98.50
2022-10-25T00:08:25.621Z,98.50
2022-10-25T00:10:52.448Z,98.50
2022-10-25T00:13:19.108Z,98.50
2022-10-25T00:15:45.840Z,98.50
2022-10-25T00:18:12.497Z,98.50
2022-10-25T00:20:39.243Z,98.50
2022-10-25T00:23:05.885Z,98.50
2022-10-25T00:25:32.566Z,98.50
2022-10-25T00:27:59.277Z,98.50
2022-10-25T00:30:25.967Z,98.50
2022-10-25T00:32:53.520Z,98.50
2022-10-25T00:35:20.525Z,98.50
2022-10-25T00:37:47.332Z,98.50
2022-10-25T00:40:14.364Z,98.50
2022-10-25T00:42:41.123Z,98.50
2022-10-25T00:45:28.169Z,98.50
2022-10-25T00:48:00.835Z,98.50
2022-10-25T00:50:48.586Z,98.50
2022-10-25T00:53:20.390Z,98.50
2022-10-25T00:56:03.260Z,98.50
2022-10-25T00:58:32.922Z,98.50
2022-10-25T01:01:00.102Z,98.50
2022-10-25T01:03:26.919Z,98.50
2022-10-25T01:05:54.037Z,98.50
2022-10-25T01:08:21.692Z,98.50
2022-10-25T01:10:49.220Z,98.50
2022-10-25T01:13:16.274Z,98.50
2022-10-25T01:15:46.043Z,98.50
2022-10-25T01:18:28.241Z,98.50
2022-10-25T01:21:27.521Z,98.50
2022-10-25T01:24:37.670Z,98.50
2022-10-25T01:27:07.218Z,98.50
2022-10-25T01:29:49.407Z,98.50
2022-10-25T01:32:27.922Z,98.50
2022-10-25T01:35:03.170Z,98.50
2022-10-25T01:38:07.588Z,98.50
2022-10-25T01:40:41.569Z,98.50
2022-10-25T01:43:23.332Z,98.50
2022-10-25T01:46:00.038Z,98.50
2022-10-25T01:48:34.741Z,98.50
2022-10-25T01:51:16.306Z,98.50
2022-10-25T01:53:50.636Z,98.50
2022-10-25T01:56:52.748Z,98.50
2022-10-25T01:59:41.898Z,98.50
2022-10-25T02:02:46.750Z,98.50
2022-10-25T02:05:35.505Z,98.50
2022-10-25T02:08:41.149Z,98.50
2022-10-25T02:11:24.478Z,98.50
2022-10-25T02:14:22.109Z,98.50
2022-10-25T02:17:30.038Z,98.50
2022-10-25T02:20:00.554Z,98.50
2022-10-25T02:22:32.123Z,98.50
2022-10-25T02:25:00.673Z,98.50
2022-10-25T02:27:28.900Z,98.50
2022-10-25T02:29:56.903Z,98.50
2022-10-25T02:32:24.389Z,98.50
2022-10-25T02:34:51.613Z,98.50
2022-10-25T02:37:18.608Z,98.50
2022-10-25T02:39:46.034Z,98.50
2022-10-25T02:42:12.795Z,98.50
2022-10-25T02:44:39.649Z,98.50
2022-10-25T02:47:06.352Z,98.50
2022-10-25T02:49:33.252Z,98.50
2022-10-25T02:51:59.917Z,98.50
2022-10-25T02:54:26.573Z,98.50
2022-10-25T02:56:54.026Z,98.50
2022-10-25T02:59:21.534Z,98.50
2022-10-25T03:01:49.086Z,98.50
2022-10-25T03:04:15.854Z,98.50
2022-10-25T03:06:42.532Z,98.50
2022-10-25T03:09:09.185Z,98.50
2022-10-25T03:11:35.908Z,98.50
2022-10-25T03:14:02.673Z,98.50
2022-10-25T03:16:29.389Z,98.50
2022-10-25T03:18:59.739Z,98.50
2022-10-25T03:21:26.408Z,98.50
2022-10-25T03:23:53.119Z,98.50
2022-10-25T03:26:19.846Z,98.50
2022-10-25T03:28:46.794Z,98.50
2022-10-25T03:31:15.156Z,98.50
2022-10-25T03:33:41.974Z,98.50
2022-10-25T03:36:09.664Z,98.50
2022-10-25T03:38:36.537Z,98.50
2022-10-25T03:41:03.477Z,98.50
2022-10-25T03:43:30.228Z,98.50
2022-10-25T03:45:57.150Z,98.50
2022-10-25T03:48:23.806Z,98.50
2022-10-25T03:50:50.453Z,98.50
2022-10-25T03:53:17.199Z,98.50
2022-10-25T03:55:43.918Z,98.50
2022-10-25T03:58:10.763Z,98.50
2022-10-25T04:00:37.687Z,98.50
2022-10-25T04:03:04.418Z,98.50
2022-10-25T04:05:31.830Z,98.50
2022-10-25T04:07:59.407Z,98.50
2022-10-25T04:10:26.508Z,98.50
2022-10-25T04:12:54.750Z,98.50
2022-10-25T04:15:22.440Z,98.50
2022-10-25T04:17:50.771Z,98.50
2022-10-25T04:20:18.492Z,98.50
2022-10-25T04:22:45.299Z,98.50
2022-10-25T04:25:12.236Z,98.50
2022-10-25T04:27:39.316Z,98.50
2022-10-25T04:30:06.449Z,98.50
2022-10-25T04:32:33.128Z,98.50
2022-10-25T04:34:59.864Z,98.50
2022-10-25T04:37:26.631Z,98.50
2022-10-25T04:39:53.383Z,98.50
2022-10-25T04:42:20.042Z,98.50
2022-10-25T04:44:46.699Z,98.50
2022-10-25T04:47:13.636Z,98.50
2022-10-25T04:49:40.371Z,98.50
2022-10-25T04:52:07.005Z,98.50
2022-10-25T04:54:33.722Z,98.50
2022-10-25T04:57:00.505Z,98.50
2022-10-25T04:59:27.161Z,98.50
2022-10-25T05:01:53.830Z,98.50
2022-10-25T05:04:20.553Z,98.50
2022-10-25T05:06:47.327Z,98.50
2022-10-25T05:09:14.102Z,98.50
2022-10-25T05:11:40.787Z,98.50
2022-10-25T05:14:07.837Z,98.50
2022-10-25T05:16:35.283Z,98.50
2022-10-25T05:19:02.234Z,98.50
2022-10-25T05:21:31.015Z,98.50
2022-10-25T05:24:01.767Z,98.50
2022-10-25T05:26:29.656Z,98.50
2022-10-25T05:28:56.970Z,98.50
2022-10-25T05:31:29.536Z,98.50
2022-10-25T05:33:59.000Z,98.50
2022-10-25T05:36:25.781Z,98.50
2022-10-25T05:38:52.486Z,98.50
2022-10-25T05:41:19.630Z,98.50
2022-10-25T05:43:46.781Z,98.50
2022-10-25T05:46:21.804Z,98.50
2022-10-25T05:48:49.618Z,98.50
2022-10-25T05:51:34.787Z,98.50
2022-10-25T05:54:12.278Z,98.50
2022-10-25T05:56:40.381Z,98.50
2022-10-25T05:59:12.182Z,98.50
2022-10-25T06:01:41.683Z,98.50
2022-10-25T06:04:09.344Z,98.50
2022-10-25T06:06:38.557Z,98.50
2022-10-25T06:09:06.008Z,98.50
2022-10-25T06:11:33.382Z,98.50
2022-10-25T06:14:00.123Z,98.50
2022-10-25T06:16:26.962Z,98.50
2022-10-25T06:18:54.541Z,98.50
2022-10-25T06:21:23.836Z,98.50
2022-10-25T06:23:51.257Z,98.50
2022-10-25T06:26:21.509Z,98.50
2022-10-25T06:28:51.296Z,98.50
2022-10-25T06:31:21.263Z,98.50
2022-10-25T06:33:48.235Z,98.50
2022-10-25T06:36:17.594Z,98.50
2022-10-25T06:38:45.540Z,98.50
2022-10-25T06:41:24.497Z,98.50
2022-10-25T06:43:51.452Z,98.50
2022-10-25T06:46:23.934Z,98.50
2022-10-25T06:48:52.715Z,98.50
2022-10-25T06:51:19.899Z,98.50
2022-10-25T06:53:46.587Z,98.50
2022-10-25T06:56:15.092Z,98.50
2022-10-25T06:58:42.597Z,98.50
2022-10-25T07:01:14.715Z,98.50
2022-10-25T07:03:42.235Z,98.50
2022-10-25T07:06:11.846Z,98.50
2022-10-25T07:08:41.073Z,98.50
2022-10-25T07:11:13.200Z,98.50
2022-10-25T07:13:39.859Z,98.50
2022-10-25T07:16:08.652Z,98.50
2022-10-25T07:18:36.201Z,98.50
2022-10-25T07:21:05.473Z,98.50
2022-10-25T07:23:32.950Z,98.50
2022-10-25T07:26:00.228Z,98.50
2022-10-25T07:28:27.706Z,98.50
2022-10-25T07:30:54.380Z,98.50
2022-10-25T07:33:21.414Z,98.50
2022-10-25T07:36:05.821Z,98.50
2022-10-25T07:38:36.363Z,98.50
2022-10-25T07:41:03.392Z,98.50
2022-10-25T07:43:30.078Z,98.50
2022-10-25T07:45:57.018Z,98.50
2022-10-25T07:48:23.750Z,98.50
2022-10-25T07:50:51.110Z,98.50
2022-10-25T07:53:18.132Z,98.50
2022-10-25T07:55:51.624Z,98.50
2022-10-25T07:58:18.382Z,98.50
2022-10-25T08:00:45.163Z,98.50
2022-10-25T08:03:13.678Z,98.50
2022-10-25T08:05:40.641Z,98.50
2022-10-25T08:08:07.405Z,98.50
2022-10-25T08:10:34.110Z,98.50
2022-10-25T08:13:00.828Z,98.50
2022-10-25T08:15:27.598Z,98.50
2022-10-25T08:18:01.737Z,98.50
2022-10-25T08:20:49.654Z,98.50
2022-10-25T08:23:15.936Z,98.50
2022-10-25T08:25:42.981Z,98.50
2022-10-25T08:28:10.221Z,98.50
2022-10-25T08:30:37.009Z,98.50
2022-10-25T08:33:03.770Z,98.50
2022-10-25T08:35:30.499Z,98.50
2022-10-25T08:38:00.666Z,98.50
2022-10-25T08:40:41.485Z,98.50
2022-10-25T08:43:32.276Z,98.50
2022-10-25T08:46:06.749Z,98.50
2022-10-25T08:48:40.624Z,98.50
2022-10-25T08:51:35.011Z,98.50
2022-10-25T08:54:08.563Z,98.50
2022-10-25T08:56:42.574Z,98.50
2022-10-25T08:59:23.172Z,98.50
2022-10-25T09:01:56.151Z,98.50
2022-10-25T09:04:23.202Z,98.50
2022-10-25T09:06:55.776Z,98.50
2022-10-25T09:09:34.482Z,98.50
2022-10-25T09:12:26.261Z,98.50
2022-10-25T09:15:12.726Z,98.50
2022-10-25T09:17:49.344Z,98.50
2022-10-25T09:20:21.760Z,98.50
2022-10-25T09:22:50.517Z,98.50
2022-10-25T09:25:23.318Z,98.50
2022-10-25T09:28:03.730Z,98.50
2022-10-25T09:30:37.512Z,98.50
2022-10-25T09:33:10.286Z,98.50
2022-10-25T09:35:47.103Z,98.50
2022-10-25T09:38:24.770Z,98.50
2022-10-25T09:41:03.178Z,98.50
2022-10-25T09:43:37.424Z,98.50
2022-10-25T09:46:16.894Z,98.50
2022-10-25T09:48:55.114Z,98.50
2022-10-25T09:51:32.884Z,98.50
2022-10-25T09:54:02.135Z,98.50
2022-10-25T09:56:28.952Z,98.50
2022-10-25T09:58:56.875Z,98.50
2022-10-25T10:01:26.807Z,98.50
2022-10-25T10:03:58.041Z,98.50
2022-10-25T10:06:35.857Z,98.50
2022-10-25T10:09:08.154Z,98.50
2022-10-25T10:11:36.483Z,98.50
2022-10-25T10:14:27.216Z,98.50
2022-10-25T10:16:57.147Z,98.50
2022-10-25T10:19:26.094Z,98.50
2022-10-25T10:21:56.013Z,98.50
2022-10-25T10:24:32.214Z,98.50
2022-10-25T10:27:05.806Z,98.50
2022-10-25T10:29:36.163Z,98.50
2022-10-25T10:32:22.634Z,98.50
2022-10-25T10:34:55.168Z,98.50
2022-10-25T10:37:27.417Z,98.50
2022-10-25T10:39:56.063Z,98.50
2022-10-25T10:45:07.866Z,98.50
2022-10-25T10:47:43.037Z,98.50
2022-10-25T10:50:25.486Z,98.50
2022-10-25T10:52:58.463Z,98.50
2022-10-25T10:55:43.929Z,98.50
2022-10-25T10:58:17.585Z,98.50
2022-10-25T11:00:56.014Z,98.50
2022-10-25T11:03:35.070Z,98.50
2022-10-25T11:06:01.854Z,98.50
2022-10-25T11:08:28.517Z,98.50
2022-10-25T11:11:14.536Z,98.50
2022-10-25T11:13:46.916Z,98.50
2022-10-25T11:16:42.065Z,98.50
2022-10-25T11:19:33.124Z,98.50
2022-10-25T11:22:11.673Z,98.50
2022-10-25T11:24:47.224Z,98.50
2022-10-25T11:27:42.477Z,98.50
2022-10-25T11:30:16.819Z,98.50
2022-10-25T11:33:17.409Z,98.50
2022-10-25T11:36:01.761Z,98.50
2022-10-25T11:38:35.230Z,97.90
2022-10-25T11:41:06.795Z,95.10
2022-10-25T11:43:48.462Z,92.30
2022-10-25T11:46:20.955Z,90.90
2022-10-25T11:49:16.554Z,88.60
2022-10-25T11:51:58.225Z,87.90
2022-10-25T11:54:24.872Z,86.40
2022-10-25T11:57:16.840Z,85.80
2022-10-25T12:00:12.534Z,85.50
2022-10-25T12:02:39.261Z,84.60
2022-10-25T12:05:42.133Z,85.20
2022-10-25T12:08:08.737Z,85.50
2022-10-25T12:10:49.839Z,85.80
2022-10-25T12:13:32.835Z,90.40
2022-10-25T12:15:59.985Z,92.50
2022-10-25T12:18:35.121Z,90.80
2022-10-25T12:21:03.322Z,91.70
2022-10-25T12:23:39.050Z,91.80
2022-10-25T12:26:11.473Z,93.50
2022-10-25T12:28:49.780Z,94.30
2022-10-25T12:31:40.777Z,95.20
2022-10-25T12:34:22.613Z,95.20
2022-10-25T12:36:56.600Z,95.20
2022-10-25T12:39:36.098Z,95.70
2022-10-25T12:42:20.548Z,96.20
2022-10-25T12:45:08.408Z,96.40
2022-10-25T12:47:44.528Z,96.50
2022-10-25T12:50:48.240Z,95.80
2022-10-25T12:53:58.272Z,96.50
2022-10-25T12:56:58.693Z,96.90
2022-10-25T12:59:43.282Z,95.70
2022-10-25T13:02:44.745Z,93.50
2022-10-25T13:05:45.637Z,92.10
2022-10-25T13:08:16.246Z,91.80
2022-10-25T13:10:48.085Z,90.00
2022-10-25T13:13:23.530Z,88.30
2022-10-25T13:15:54.104Z,89.50
2022-10-25T13:18:32.745Z,90.00
2022-10-25T13:21:05.226Z,88.90
2022-10-25T13:23:46.716Z,89.20
2022-10-25T13:26:21.034Z,89.80
2022-10-25T13:28:51.009Z,90.00
2022-10-25T13:31:36.061Z,91.40
2022-10-25T13:34:14.625Z,92.20
2022-10-25T13:36:54.433Z,93.10
2022-10-25T13:39:45.275Z,94.00
2022-10-25T13:42:14.880Z,95.10
2022-10-25T13:44:50.619Z,95.90
2022-10-25T13:47:39.969Z,95.60
2022-10-25T13:50:29.696Z,95.50
2022-10-25T13:53:03.720Z,96.00
2022-10-25T13:55:54.219Z,95.20
2022-10-25T13:58:31.848Z,94.80
2022-10-25T14:01:18.872Z,94.40
2022-10-25T14:03:54.032Z,93.00
2022-10-25T14:06:33.043Z,91.10
2022-10-25T14:09:18.324Z,91.60
2022-10-25T14:11:51.511Z,90.90
2022-10-25T14:14:44.223Z,90.90
2022-10-25T14:17:32.597Z,89.80
2022-10-25T14:20:02.762Z,87.90
2022-10-25T14:22:51.612Z,88.40
2022-10-25T14:25:18.221Z,88.80
2022-10-25T14:27:44.903Z,88.40
2022-10-25T14:30:24.997Z,87.80
2022-10-25T14:33:00.642Z,87.70
2022-10-25T14:35:46.092Z,88.30
2022-10-25T14:38:20.062Z,90.60
2022-10-25T14:41:09.873Z,91.00
2022-10-25T14:43:38.574Z,91.60
2022-10-25T14:46:14.648Z,91.10
2022-10-25T14:48:45.161Z,90.40
2022-10-25T14:51:21.722Z,92.10
2022-10-25T14:54:00.437Z,92.70
2022-10-25T14:56:37.779Z,92.90
2022-10-25T14:59:07.788Z,92.90
2022-10-25T15:01:51.213Z,92.90
2022-10-25T15:04:26.485Z,92.80
2022-10-25T15:06:53.334Z,92.80
2022-10-25T15:12:16.761Z,92.00
2022-10-25T15:14:46.458Z,93.90
2022-10-25T15:17:16.124Z,94.10
2022-10-25T15:20:01.724Z,93.70
2022-10-25T15:22:42.002Z,94.10
2022-10-25T15:25:24.493Z,95.10
2022-10-25T15:27:54.654Z,96.20
2022-10-25T15:30:49.664Z,97.30
2022-10-25T15:33:19.313Z,98.20
2022-10-25T15:35:55.481Z,98.50
2022-10-25T15:38:37.030Z,98.40
2022-10-25T15:41:12.788Z,98.30
2022-10-25T15:43:39.446Z,98.50
2022-10-25T15:46:07.775Z,98.50
2022-10-25T15:48:34.579Z,98.50
2022-10-25T15:51:01.216Z,98.50
2022-10-25T15:53:27.927Z,98.50
2022-10-25T15:55:54.664Z,98.50
2022-10-25T15:58:21.350Z,98.50
2022-10-25T16:00:51.882Z,98.50
2022-10-25T16:03:24.571Z,98.50
2022-10-25T16:05:52.287Z,98.50
2022-10-25T16:08:19.076Z,98.50
2022-10-25T16:10:45.902Z,98.50
2022-10-25T16:13:19.387Z,98.50
2022-10-25T16:15:46.030Z,98.50
2022-10-25T16:18:12.832Z,98.50
2022-10-25T16:20:39.539Z,98.50
2022-10-25T16:23:06.225Z,98.50
2022-10-25T16:25:33.399Z,98.50
2022-10-25T16:28:00.599Z,98.50
2022-10-25T16:30:33.871Z,98.50
2022-10-25T16:33:00.952Z,98.50
2022-10-25T16:35:27.720Z,98.50
2022-10-25T16:37:54.528Z,98.50
2022-10-25T16:40:22.394Z,98.50
2022-10-25T16:42:49.942Z,98.50
2022-10-25T16:45:26.511Z,98.50
2022-10-25T16:47:57.648Z,98.50
2022-10-25T16:50:26.500Z,98.50
2022-10-25T16:52:55.717Z,98.50
2022-10-25T16:55:23.241Z,98.50
2022-10-25T16:57:50.021Z,98.50
2022-10-25T17:00:17.075Z,98.50
2022-10-25T17:02:44.147Z,98.50
2022-10-25T17:05:20.603Z,98.50
2022-10-25T17:07:47.708Z,98.50
2022-10-25T17:10:16.847Z,98.50
2022-10-25T17:12:47.842Z,98.50
2022-10-25T17:15:15.484Z,98.50
2022-10-25T17:17:42.436Z,98.50
2022-10-25T17:20:10.896Z,98.50
2022-10-25T17:22:38.469Z,98.50
2022-10-25T17:25:06.559Z,98.50
2022-10-25T17:27:39.610Z,98.50
2022-10-25T17:30:07.844Z,98.50
2022-10-25T17:32:34.538Z,98.50
2022-10-25T17:35:01.385Z,98.50
2022-10-25T17:37:28.585Z,98.50
2022-10-25T17:39:55.216Z,98.50
2022-10-25T17:42:22.090Z,98.50
2022-10-25T17:44:48.962Z,98.50
2022-10-25T17:47:16.124Z,98.50
2022-10-25T17:49:42.820Z,98.50
2022-10-25T17:52:09.881Z,98.50
2022-10-25T17:54:38.446Z,98.50
2022-10-25T17:57:05.878Z,98.50
2022-10-25T17:59:33.516Z,98.50
2022-10-25T18:02:00.517Z,98.50
2022-10-25T18:04:27.506Z,98.50
2022-10-25T18:06:54.170Z,98.50
2022-10-25T18:09:20.968Z,98.50
2022-10-25T18:11:47.709Z,98.50
2022-10-25T18:14:14.372Z,98.50
2022-10-25T18:16:41.471Z,98.50
2022-10-25T18:19:13.800Z,98.50
2022-10-25T18:21:41.154Z,98.50
2022-10-25T18:24:07.971Z,98.50
2022-10-25T18:26:35.282Z,98.50
2022-10-25T18:29:02.207Z,98.50
2022-10-25T18:31:29.026Z,98.50
2022-10-25T18:33:56.306Z,98.50
2022-10-25T18:36:23.067Z,98.50
2022-10-25T18:38:50.952Z,98.50
2022-10-25T18:41:20.623Z,98.50
2022-10-25T18:43:47.328Z,98.50
2022-10-25T18:46:14.461Z,98.50
2022-10-25T18:48:41.835Z,98.50
2022-10-25T18:51:11.915Z,98.50
2022-10-25T18:53:39.632Z,98.50
2022-10-25T18:56:10.712Z,98.50
2022-10-25T18:58:37.777Z,98.50
2022-10-25T19:01:13.341Z,98.50
2022-10-25T19:03:40.596Z,98.50
2022-10-25T19:06:07.945Z,98.50
2022-10-25T19:08:35.436Z,98.50
2022-10-25T19:11:09.597Z,98.50
2022-10-25T19:13:36.397Z,98.50
2022-10-25T19:16:03.483Z,98.50
2022-10-25T19:18:31.811Z,98.50
2022-10-25T19:21:07.825Z,98.50
2022-10-25T19:23:35.177Z,98.50
2022-10-25T19:26:07.333Z,98.50
2022-10-25T19:28:34.241Z,98.50
2022-10-25T19:31:08.976Z,98.50
2022-10-25T19:33:36.121Z,98.50
2022-10-25T19:36:08.792Z,98.50
2022-10-25T19:38:36.598Z,98.50
2022-10-25T19:41:05.849Z,98.50
2022-10-25T19:43:33.744Z,98.50
2022-10-25T19:46:04.626Z,98.50
2022-10-25T19:48:31.811Z,98.50
2022-10-25T19:51:10.909Z,98.50
2022-10-25T19:53:37.989Z,98.50
2022-10-25T19:56:12.901Z,98.50
2022-10-25T19:58:40.353Z,98.50
2022-10-25T20:01:08.617Z,98.50
2022-10-25T20:03:35.872Z,98.50
2022-10-25T20:06:09.038Z,98.50
2022-10-25T20:08:37.529Z,98.50
2022-10-25T20:11:04.986Z,98.50
2022-10-25T20:13:31.960Z,98.50
2022-10-25T20:15:58.940Z,98.50
2022-10-25T20:18:30.091Z,98.50
2022-10-25T20:21:02.690Z,98.50
2022-10-25T20:23:29.688Z,98.50
2022-10-25T20:25:56.465Z,98.50
2022-10-25T20:28:23.709Z,98.50
2022-10-25T20:30:50.913Z,98.50
2022-10-25T20:33:19.893Z,98.50
2022-10-25T20:35:46.575Z,98.50
2022-10-25T20:38:13.760Z,98.50
2022-10-25T20:40:41.075Z,98.50
2022-10-25T20:43:07.849Z,98.50
2022-10-25T20:45:34.719Z,98.50
2022-10-25T20:48:01.606Z,98.50
2022-10-25T20:50:29.757Z,98.50
2022-10-25T20:53:09.898Z,98.50
2022-10-25T20:55:37.241Z,98.50
2022-10-25T20:58:04.198Z,98.50
2022-10-25T21:00:32.282Z,98.50
2022-10-25T21:02:59.904Z,98.50
2022-10-25T21:05:26.915Z,98.50
2022-10-25T21:07:53.764Z,98.50
2022-10-25T21:10:20.526Z,98.50
2022-10-25T21:12:47.268Z,98.50
2022-10-25T21:15:13.935Z,98.50
2022-10-25T21:17:40.726Z,98.50
2022-10-25T21:20:08.197Z,98.50
2022-10-25T21:22:34.931Z,98.50
2022-10-25T21:25:01.611Z,98.50
2022-10-25T21:27:28.299Z,98.50
2022-10-25T21:29:54.942Z,98.50
2022-10-25T21:32:21.625Z,98.50
2022-10-25T21:34:48.265Z,98.50
2022-10-25T21:37:15.032Z,98.50
2022-10-25T21:39:43.372Z,98.50
2022-10-25T21:42:10.170Z,98.50
2022-10-25T21:44:37.034Z,98.50
2022-10-25T21:47:03.717Z,98.50
2022-10-25T21:49:30.470Z,98.50
2022-10-25T21:51:57.274Z,98.50
2022-10-25T21:54:24.871Z,98.50
2022-10-25T21:56:54.921Z,98.50
2022-10-25T21:59:22.540Z,98.50
2022-10-25T22:01:49.446Z,98.50
2022-10-25T22:04:16.423Z,98.50
2022-10-25T22:06:43.094Z,98.50
2022-10-25T22:09:09.810Z,98.50
2022-10-25T22:11:38.380Z,98.50
2022-10-25T22:14:08.075Z,98.50
2022-10-25T22:16:35.237Z,98.50
2022-10-25T22:19:08.029Z,98.50
2022-10-25T22:21:38.234Z,98.50
2022-10-25T22:24:08.340Z,98.50
2022-10-25T22:26:36.917Z,98.50
2022-10-25T22:29:04.255Z,98.50
2022-10-25T22:31:31.410Z,98.50
2022-10-25T22:34:00.916Z,98.50
2022-10-25T22:36:32.829Z,98.50
2022-10-25T22:38:59.635Z,98.50
2022-10-25T22:41:29.112Z,98.50
2022-10-25T22:43:56.489Z,98.50
2022-10-25T22:46:34.586Z,98.50
2022-10-25T22:49:06.114Z,98.50
2022-10-25T22:51:32.861Z,98.50
2022-10-25T22:53:59.540Z,98.50
2022-10-25T22:56:28.938Z,98.50
2022-10-25T22:58:57.393Z,98.50
2022-10-25T23:01:29.794Z,98.50
2022-10-25T23:03:57.877Z,98.50
2022-10-25T23:06:27.012Z,98.50
2022-10-25T23:08:55.378Z,98.50
2022-10-25T23:11:33.868Z,98.50
2022-10-25T23:14:01.379Z,98.50
2022-10-25T23:16:29.267Z,98.50
2022-10-25T23:18:56.508Z,98.50
2022-10-25T23:21:27.854Z,98.50
2022-10-25T23:23:56.299Z,98.50
2022-10-25T23:26:32.087Z,98.50
2022-10-25T23:28:59.873Z,98.50
2022-10-25T23:31:27.226Z,98.50
2022-10-25T23:33:56.534Z,98.50
2022-10-25T23:36:25.464Z,98.50
2022-10-25T23:38:53.392Z,98.50
2022-10-25T23:41:21.468Z,98.50
2022-10-25T23:43:48.888Z,98.50
2022-10-25T23:46:15.784Z,98.50
2022-10-25T23:48:42.584Z,98.50
2022-10-25T23:51:11.496Z,98.50
2022-10-25T23:53:38.428Z,98.50
2022-10-25T23:56:07.376Z,98.50
2022-10-25T23:58:34.320Z,98.50
